Terminal Aerodrome Forecast
Issued by NWS Sterling, VA

Home | Current Version | Previous Version | Text Only | Print | Product List | Glossary On
Versions: 1 2 3 4 5 6 7 8 9 10 11 12
000
FTUS41 KLWX 272334
TAFCHO
TAF
KCHO 272334Z 2800/2824 18005KT P6SM VCTS SCT050CB
     FM280200 VRB03KT P6SM SCT050
     FM280600 VRB03KT 3SM BR FEW250
     FM281300 20004KT P6SM FEW250
     FM281900 17008KT P6SM SCT250=

USA.gov is the U.S. government's official web portal to all federal, state and local government web resources and services.